map of SSG home
SSG - Airport
Location
City:  Malabo, Bioko Island, Bioko Norte, Equatorial Guinea
Name:Malabo International Airport
ICAO:FGSL
IATA:SSG

Details
Type:Airport (Aerodrome, Airfield)
Use:Public/Civil, Military, International (customs port of entry)
Latitude:345'19"N (3.755278)
Longitude:842'31"E (8.708611)
Elevation:75 ft (23 m)
Variation:1.19W (WMM2015v2 magnetic declination)
0.14 annual change
Runways:2
Longest:9646 × 148 ft (2940 × 45 m), paved

Time
Time Zone:UTC+1
Local Time:

Weather
METAR:FGSL 041400Z 19005KT 4500 TS SHRA BKN010 FEW020CB BKN053 28/24 Q1009 TEMPO 2500
TAF:FGSL 041100Z 0412/0518 22008KT 9999 SCT010 FEW020CB
TEMPO 0407/0410 BKN012 PROB30
TEMPO 0502/0406 TS BKN010 FEW020CB

Related Locations
Nearby:
Farthest:CIS: 12358 mi / 19889 km
Kanton Island (Canton Island, Abariringa Island) [Canton Island Airport], P, KI

Find:

   beyond  
but within

Other Information
Maps:
NOTAMs:
Links:
Sources:

  
  • flag of Equatorial Guinea
  • flag of Bioko Norte
  

Sectional Chart

Flight Planning
at skyvector.com

Satellite Image

Google Maps Satellite view

 

Copyright © 2004-2019 Karl L. Swartz. All rights reserved.
The Great Circle Mapper name and logo are trademarks of the Great Circle Mapper.
All other trademarks mentioned herein belong to their respective owners.
Please see credits for attibutions and further copyright information.

  Follow gcmap on Facebook Follow gcmap on Twitter GCmap on LinkedIn

hCard Microformat

Geo Microformat